createdAt,value
2023-03-27T00:00:10.890Z,31.97
2023-03-27T00:02:38.914Z,28.90
2023-03-27T00:05:07.985Z,29.87
2023-03-27T00:07:37.153Z,29.50
2023-03-27T00:10:05.449Z,26.57
2023-03-27T00:12:34.812Z,24.10
2023-03-27T00:15:02.847Z,33.27
2023-03-27T00:17:31.258Z,31.10
2023-03-27T00:19:59.334Z,27.40
2023-03-27T00:22:27.263Z,30.07
2023-03-27T00:24:55.228Z,35.57
2023-03-27T00:27:25.128Z,38.00
2023-03-27T00:29:54.965Z,34.53
2023-03-27T00:32:22.938Z,33.53
2023-03-27T00:34:50.910Z,29.13
2023-03-27T00:37:18.964Z,32.50
2023-03-27T00:39:50.487Z,34.63
2023-03-27T00:42:22.956Z,27.20
2023-03-27T00:44:52.513Z,30.93
2023-03-27T00:47:34.224Z,33.73
2023-03-27T00:50:05.404Z,32.63
2023-03-27T00:52:34.314Z,36.13
2023-03-27T00:55:07.387Z,30.57
2023-03-27T00:57:35.512Z,30.07
2023-03-27T01:00:12.818Z,28.17
2023-03-27T01:02:43.612Z,32.03
2023-03-27T01:05:12.869Z,25.87
2023-03-27T01:07:42.049Z,29.13
2023-03-27T01:10:37.189Z,25.97
2023-03-27T01:13:13.540Z,27.40
2023-03-27T01:15:50.120Z,27.30
2023-03-27T01:18:34.322Z,22.17
2023-03-27T01:21:35.242Z,25.77
2023-03-27T01:24:25.540Z,34.20
2023-03-27T01:27:05.462Z,36.37
2023-03-27T01:30:04.530Z,42.20
2023-03-27T01:33:14.273Z,36.90
2023-03-27T01:36:13.395Z,34.73
2023-03-27T01:39:05.286Z,33.00
2023-03-27T01:41:42.071Z,39.43
2023-03-27T01:44:16.084Z,40.47
2023-03-27T01:46:51.191Z,39.40
2023-03-27T01:49:26.361Z,35.97
2023-03-27T01:51:57.625Z,33.20
2023-03-27T01:54:29.526Z,28.00
2023-03-27T01:57:04.238Z,28.70
2023-03-27T01:59:38.607Z,27.10
2023-03-27T02:02:12.465Z,30.40
2023-03-27T02:04:46.964Z,25.77
2023-03-27T02:07:18.934Z,24.47
2023-03-27T02:09:51.196Z,26.27
2023-03-27T02:12:24.078Z,24.00
2023-03-27T02:14:56.073Z,27.30
2023-03-27T02:17:26.412Z,22.67
2023-03-27T02:19:59.500Z,23.07
2023-03-27T02:22:38.463Z,26.40
2023-03-27T02:25:27.718Z,24.20
2023-03-27T02:28:22.768Z,24.20
2023-03-27T02:31:06.597Z,29.73
2023-03-27T02:34:04.967Z,24.33
2023-03-27T02:36:41.629Z,26.13
2023-03-27T02:39:14.742Z,24.63
2023-03-27T02:41:48.576Z,32.10
2023-03-27T02:44:28.946Z,30.50
2023-03-27T02:47:04.009Z,32.33
2023-03-27T02:49:37.283Z,26.80
2023-03-27T02:52:08.772Z,32.37
2023-03-27T02:54:41.071Z,25.67
2023-03-27T02:57:15.500Z,28.73
2023-03-27T02:59:50.610Z,24.43
2023-03-27T03:02:24.761Z,25.10
2023-03-27T03:04:57.805Z,26.03
2023-03-27T03:07:26.526Z,22.97
2023-03-27T03:09:54.855Z,21.23
2023-03-27T03:12:23.214Z,19.57
2023-03-27T03:14:52.836Z,22.33
2023-03-27T03:17:21.577Z,20.57
2023-03-27T03:19:49.842Z,21.67
2023-03-27T03:22:18.152Z,21.93
2023-03-27T03:24:46.123Z,23.90
2023-03-27T03:27:14.383Z,24.70
2023-03-27T03:29:44.284Z,23.47
2023-03-27T03:32:13.642Z,25.03
2023-03-27T03:34:46.556Z,27.20
2023-03-27T03:37:14.921Z,23.73
2023-03-27T03:39:42.979Z,22.00
2023-03-27T03:42:22.340Z,26.93
2023-03-27T03:44:51.021Z,21.07
2023-03-27T03:47:20.424Z,21.80
2023-03-27T03:49:48.405Z,20.20
2023-03-27T03:52:16.346Z,20.70
2023-03-27T03:54:46.569Z,20.00
2023-03-27T03:57:15.117Z,19.00
2023-03-27T03:59:43.541Z,17.53
2023-03-27T04:02:12.402Z,15.53
2023-03-27T04:04:43.749Z,16.03
2023-03-27T04:07:13.418Z,19.47
2023-03-27T04:09:41.401Z,16.63
2023-03-27T04:12:10.000Z,18.47
2023-03-27T04:14:38.225Z,19.67
2023-03-27T04:17:06.171Z,17.67
2023-03-27T04:19:34.148Z,16.13
2023-03-27T04:22:04.464Z,18.47
2023-03-27T04:24:32.450Z,18.90
2023-03-27T04:27:01.174Z,20.23
2023-03-27T04:29:30.403Z,17.20
2023-03-27T04:31:58.399Z,14.50
2023-03-27T04:34:27.307Z,17.33
2023-03-27T04:36:55.784Z,19.93
2023-03-27T04:39:26.468Z,20.33
2023-03-27T04:41:54.494Z,18.33
2023-03-27T04:44:22.433Z,18.00
2023-03-27T04:46:50.495Z,21.43
2023-03-27T04:49:20.433Z,25.30
2023-03-27T04:51:48.514Z,22.00
2023-03-27T04:54:16.497Z,22.30
2023-03-27T04:56:46.572Z,21.13
2023-03-27T04:59:16.056Z,22.67
2023-03-27T05:01:44.086Z,22.87
2023-03-27T05:04:12.062Z,20.17
2023-03-27T05:06:40.740Z,23.43
2023-03-27T05:09:09.025Z,19.03
2023-03-27T05:11:37.170Z,22.67
2023-03-27T05:14:07.144Z,15.93
2023-03-27T05:16:35.930Z,19.23
2023-03-27T05:19:04.425Z,21.90
2023-03-27T05:21:32.469Z,21.33
2023-03-27T05:24:05.128Z,22.43
2023-03-27T05:26:33.271Z,19.33
2023-03-27T05:29:01.541Z,21.73
2023-03-27T05:31:31.448Z,22.27
2023-03-27T05:33:59.819Z,22.47
2023-03-27T05:36:29.667Z,26.50
2023-03-27T05:38:58.145Z,23.03
2023-03-27T05:41:26.391Z,22.23
2023-03-27T05:43:54.797Z,21.27
2023-03-27T05:46:22.828Z,22.70
2023-03-27T05:48:52.367Z,23.93
2023-03-27T05:51:20.580Z,30.00
2023-03-27T05:53:48.540Z,29.27
2023-03-27T05:56:16.562Z,26.40
2023-03-27T05:58:44.606Z,25.30
2023-03-27T06:01:14.018Z,29.03
2023-03-27T06:03:42.127Z,28.23
2023-03-27T06:06:13.504Z,28.30
2023-03-27T06:08:41.549Z,25.87
2023-03-27T06:11:10.822Z,24.30
2023-03-27T06:13:39.318Z,24.50
2023-03-27T06:16:08.709Z,28.80
2023-03-27T06:18:36.702Z,24.70
2023-03-27T06:21:05.686Z,23.73
2023-03-27T06:23:35.243Z,19.00
2023-03-27T06:26:03.719Z,24.13
2023-03-27T06:28:32.484Z,20.50
2023-03-27T06:31:00.583Z,19.03
2023-03-27T06:33:29.850Z,25.47
2023-03-27T06:36:00.505Z,21.23
2023-03-27T06:38:30.954Z,22.63
2023-03-27T06:41:01.942Z,23.63
2023-03-27T06:43:29.882Z,27.93
2023-03-27T06:45:58.359Z,21.03
2023-03-27T06:48:27.240Z,26.67
2023-03-27T06:50:56.178Z,28.60
2023-03-27T06:53:27.991Z,24.67
2023-03-27T06:55:57.866Z,27.10
2023-03-27T06:58:28.131Z,25.80
2023-03-27T07:00:56.555Z,23.93
2023-03-27T07:03:26.043Z,24.03
2023-03-27T07:05:54.445Z,27.50
2023-03-27T07:08:25.221Z,25.03
2023-03-27T07:11:09.831Z,27.33
2023-03-27T07:13:42.575Z,24.33
2023-03-27T07:16:12.720Z,24.57
2023-03-27T07:18:42.572Z,28.70
2023-03-27T07:21:13.023Z,24.57
2023-03-27T07:23:41.510Z,33.30
2023-03-27T07:26:09.749Z,27.13
2023-03-27T07:28:38.624Z,29.90
2023-03-27T07:31:27.633Z,31.50
2023-03-27T07:34:01.004Z,32.17
2023-03-27T07:36:29.831Z,35.07
2023-03-27T07:38:57.961Z,34.03
2023-03-27T07:41:26.128Z,31.20
2023-03-27T07:43:54.688Z,36.60
2023-03-27T07:46:25.793Z,33.73
2023-03-27T07:48:55.254Z,37.70
2023-03-27T07:51:23.548Z,31.73
2023-03-27T07:53:56.526Z,30.70
2023-03-27T07:56:24.663Z,35.73
2023-03-27T07:58:53.186Z,32.70
2023-03-27T08:01:21.480Z,37.70
2023-03-27T08:03:52.511Z,34.33
2023-03-27T08:06:20.884Z,40.77
2023-03-27T08:08:50.384Z,38.50
2023-03-27T08:11:30.064Z,37.90
2023-03-27T08:13:59.062Z,34.77
2023-03-27T08:16:29.630Z,30.63
2023-03-27T08:19:00.835Z,33.43
2023-03-27T08:21:32.106Z,33.80
2023-03-27T08:24:01.230Z,33.03
2023-03-27T08:26:29.678Z,36.47
2023-03-27T08:28:57.881Z,37.80
2023-03-27T08:31:29.222Z,41.47
2023-03-27T08:33:57.612Z,42.10
2023-03-27T08:36:28.115Z,42.47
2023-03-27T08:38:56.275Z,43.20
2023-03-27T08:41:30.797Z,40.07
2023-03-27T08:44:03.556Z,43.47
2023-03-27T08:46:37.428Z,37.17
2023-03-27T08:49:09.781Z,39.53
2023-03-27T08:51:45.131Z,35.70
2023-03-27T08:54:18.834Z,32.17
2023-03-27T08:56:48.301Z,44.53
2023-03-27T08:59:18.814Z,36.20
2023-03-27T09:01:53.941Z,35.27
2023-03-27T09:04:32.312Z,33.77
2023-03-27T09:07:07.791Z,30.23
2023-03-27T09:09:47.815Z,32.03
2023-03-27T09:12:31.849Z,24.13
2023-03-27T09:15:04.586Z,26.33
2023-03-27T09:17:36.641Z,26.90
2023-03-27T09:20:08.898Z,29.43
2023-03-27T09:22:44.846Z,20.33
2023-03-27T09:25:23.331Z,24.20
2023-03-27T09:27:54.175Z,21.00
2023-03-27T09:30:25.994Z,17.90
2023-03-27T09:32:58.043Z,23.47
2023-03-27T09:35:27.433Z,26.37
2023-03-27T09:38:01.353Z,25.50
2023-03-27T09:40:34.044Z,22.30
2023-03-27T09:43:09.256Z,23.30
2023-03-27T09:45:40.870Z,21.73
2023-03-27T09:48:15.913Z,26.37
2023-03-27T09:50:47.361Z,20.70
2023-03-27T09:53:19.173Z,20.60
2023-03-27T09:55:53.116Z,23.27
2023-03-27T09:58:32.073Z,21.37
2023-03-27T10:01:16.164Z,30.67
2023-03-27T10:03:52.670Z,25.03
2023-03-27T10:06:27.808Z,31.13
2023-03-27T10:09:01.262Z,25.93
2023-03-27T10:11:33.927Z,24.77
2023-03-27T10:14:11.280Z,24.83
2023-03-27T10:16:42.541Z,24.33
2023-03-27T10:19:23.518Z,24.63
2023-03-27T10:21:52.853Z,22.50
2023-03-27T10:24:31.711Z,25.50
2023-03-27T10:27:00.799Z,24.37
2023-03-27T10:29:32.390Z,23.07
2023-03-27T10:32:01.970Z,19.70
2023-03-27T10:34:38.499Z,19.80
2023-03-27T10:37:21.751Z,24.77
2023-03-27T10:39:53.705Z,23.30
2023-03-27T10:42:22.821Z,20.20
2023-03-27T10:44:54.542Z,28.47
2023-03-27T10:47:27.376Z,24.30
2023-03-27T10:50:04.274Z,24.20
2023-03-27T10:52:42.026Z,14.70
2023-03-27T10:55:25.888Z,17.40
2023-03-27T10:57:57.795Z,24.87
2023-03-27T11:00:33.203Z,21.23
2023-03-27T11:03:06.722Z,16.37
2023-03-27T11:05:39.069Z,15.90
2023-03-27T11:08:10.551Z,18.00
2023-03-27T11:10:42.859Z,12.90
2023-03-27T11:13:15.867Z,18.33
2023-03-27T11:15:46.849Z,11.43
2023-03-27T11:18:19.874Z,14.77
2023-03-27T11:20:51.985Z,17.67
2023-03-27T11:23:28.557Z,12.40
2023-03-27T11:26:00.808Z,12.27
2023-03-27T11:28:39.799Z,10.27
2023-03-27T11:31:16.040Z,9.83
2023-03-27T11:33:50.580Z,21.00
2023-03-27T11:36:40.186Z,10.73
2023-03-27T11:39:17.807Z,13.33
2023-03-27T11:41:53.373Z,10.70
2023-03-27T11:44:22.358Z,13.27
2023-03-27T11:47:12.067Z,9.77
2023-03-27T11:50:03.217Z,9.17
2023-03-27T11:52:39.224Z,10.67
2023-03-27T11:55:17.822Z,15.53
2023-03-27T11:58:04.339Z,9.87
2023-03-27T12:00:37.162Z,9.30
2023-03-27T12:03:37.961Z,14.77
2023-03-27T12:06:15.679Z,14.60
2023-03-27T12:09:00.470Z,10.53
2023-03-27T12:11:30.908Z,10.67
2023-03-27T12:14:19.324Z,10.13
2023-03-27T12:17:06.159Z,8.33
2023-03-27T12:19:59.009Z,10.70
2023-03-27T12:22:36.840Z,11.47
2023-03-27T12:25:34.161Z,8.13
2023-03-27T12:28:22.585Z,10.40
2023-03-27T12:31:04.515Z,8.67
2023-03-27T12:33:45.690Z,9.63
2023-03-27T12:36:17.400Z,12.87
2023-03-27T12:38:46.911Z,9.03
2023-03-27T12:41:23.259Z,10.90
2023-03-27T12:43:56.945Z,8.00
2023-03-27T12:46:35.407Z,9.17
2023-03-27T12:49:34.231Z,8.67
2023-03-27T12:52:10.240Z,7.47
2023-03-27T12:54:40.290Z,11.10
2023-03-27T12:57:16.484Z,10.37
2023-03-27T12:59:52.744Z,10.10
2023-03-27T13:03:02.936Z,10.67
2023-03-27T13:06:00.938Z,8.93
2023-03-27T13:09:00.910Z,8.70
2023-03-27T13:11:42.347Z,13.43
2023-03-27T13:14:36.750Z,20.00
2023-03-27T13:17:20.062Z,23.23
2023-03-27T13:19:56.900Z,12.50
2023-03-27T13:22:37.090Z,10.87
2023-03-27T13:25:30.082Z,15.83
2023-03-27T13:28:28.331Z,15.40
2023-03-27T13:30:58.568Z,17.10
2023-03-27T13:33:39.343Z,11.23
2023-03-27T13:36:15.187Z,11.57
2023-03-27T13:39:11.975Z,14.30
2023-03-27T13:42:04.076Z,18.30
2023-03-27T13:44:58.416Z,9.53
2023-03-27T13:48:14.660Z,15.80
2023-03-27T13:51:02.836Z,12.80
2023-03-27T13:53:48.670Z,14.87
2023-03-27T13:56:39.088Z,17.13
2023-03-27T13:59:43.890Z,17.33
2023-03-27T14:03:10.855Z,9.00
2023-03-27T14:06:14.885Z,14.97
2023-03-27T14:08:48.432Z,16.37
2023-03-27T14:11:26.600Z,11.00
2023-03-27T14:14:08.637Z,11.63
2023-03-27T14:17:15.028Z,11.13
2023-03-27T14:20:11.611Z,14.30
2023-03-27T14:22:44.255Z,10.63
2023-03-27T14:25:16.812Z,11.17
2023-03-27T14:27:49.826Z,7.70
2023-03-27T14:30:21.803Z,9.73
2023-03-27T14:32:50.842Z,13.23
2023-03-27T14:35:36.161Z,10.60
2023-03-27T14:38:07.760Z,9.37
2023-03-27T14:40:39.487Z,12.10
2023-03-27T14:43:08.466Z,14.57
2023-03-27T14:45:39.414Z,14.77
2023-03-27T14:48:10.647Z,13.20
2023-03-27T14:50:40.714Z,12.80
2023-03-27T14:53:11.617Z,9.67
2023-03-27T14:55:42.642Z,12.40
2023-03-27T14:58:18.720Z,11.10
2023-03-27T15:00:52.711Z,12.53
2023-03-27T15:03:24.726Z,14.80
2023-03-27T15:06:01.349Z,13.10
2023-03-27T15:08:34.011Z,9.37
2023-03-27T15:11:03.455Z,7.77
2023-03-27T15:13:36.805Z,9.27
2023-03-27T15:16:06.763Z,11.27
2023-03-27T15:18:37.964Z,9.07
2023-03-27T15:21:14.383Z,8.97
2023-03-27T15:23:58.927Z,7.77
2023-03-27T15:26:31.737Z,10.63
2023-03-27T15:29:04.235Z,8.00
2023-03-27T15:31:34.775Z,10.57
2023-03-27T15:34:08.313Z,9.47
2023-03-27T15:36:39.579Z,14.10
2023-03-27T15:39:08.418Z,9.90
2023-03-27T15:41:44.015Z,11.07
2023-03-27T15:44:16.824Z,10.17
2023-03-27T15:47:00.454Z,10.93
2023-03-27T15:49:34.292Z,9.93
2023-03-27T15:52:31.107Z,11.83
2023-03-27T15:55:01.490Z,8.67
2023-03-27T15:57:30.508Z,11.80
2023-03-27T16:00:04.525Z,9.53
2023-03-27T16:02:32.623Z,12.73
2023-03-27T16:05:01.195Z,9.13
2023-03-27T16:07:43.172Z,10.87
2023-03-27T16:10:12.485Z,13.97
2023-03-27T16:12:51.100Z,13.17
2023-03-27T16:15:29.821Z,11.20
2023-03-27T16:17:59.994Z,14.70
2023-03-27T16:20:37.501Z,9.70
2023-03-27T16:23:06.918Z,11.17
2023-03-27T16:25:35.224Z,18.70
2023-03-27T16:28:03.576Z,13.47
2023-03-27T16:30:35.337Z,17.07
2023-03-27T16:33:03.984Z,12.50
2023-03-27T16:35:33.919Z,18.50
2023-03-27T16:38:02.024Z,13.47
2023-03-27T16:40:31.679Z,12.17
2023-03-27T16:42:59.729Z,11.13
2023-03-27T16:45:27.842Z,9.10
2023-03-27T16:47:55.883Z,11.97
2023-03-27T16:50:26.732Z,11.93
2023-03-27T16:52:54.811Z,9.43
2023-03-27T16:55:23.134Z,10.50
2023-03-27T16:57:54.187Z,12.83
2023-03-27T17:00:22.926Z,11.73
2023-03-27T17:02:51.047Z,14.07
2023-03-27T17:05:19.225Z,14.23
2023-03-27T17:07:48.226Z,15.67
2023-03-27T17:10:16.915Z,13.20
2023-03-27T17:12:44.944Z,13.83
2023-03-27T17:15:15.862Z,12.70
2023-03-27T17:17:45.041Z,17.43
2023-03-27T17:20:13.464Z,10.30
2023-03-27T17:22:41.444Z,14.63
2023-03-27T17:25:10.424Z,12.87
2023-03-27T17:27:38.994Z,13.00
2023-03-27T17:30:08.253Z,18.17
2023-03-27T17:32:37.909Z,14.07
2023-03-27T17:35:06.458Z,16.17
2023-03-27T17:37:36.359Z,20.80
2023-03-27T17:40:09.469Z,20.47
2023-03-27T17:42:37.662Z,17.10
2023-03-27T17:45:06.627Z,14.93
2023-03-27T17:47:34.676Z,19.13
2023-03-27T17:50:04.368Z,15.17
2023-03-27T17:52:33.179Z,11.97
2023-03-27T17:55:01.144Z,15.13
2023-03-27T17:57:29.582Z,12.80
2023-03-27T17:59:57.575Z,17.10
2023-03-27T18:02:25.676Z,14.00
2023-03-27T18:04:53.686Z,12.20
2023-03-27T18:07:24.071Z,15.53
2023-03-27T18:09:52.409Z,15.40
2023-03-27T18:12:21.169Z,14.03
2023-03-27T18:14:49.170Z,12.87
2023-03-27T18:17:20.886Z,16.07
2023-03-27T18:19:48.957Z,19.47
2023-03-27T18:22:17.546Z,21.80
2023-03-27T18:24:46.982Z,19.23
2023-03-27T18:27:16.426Z,22.30
2023-03-27T18:29:44.432Z,16.20
2023-03-27T18:32:13.018Z,15.10
2023-03-27T18:34:41.275Z,15.17
2023-03-27T18:37:09.235Z,17.87
2023-03-27T18:39:37.824Z,32.60
2023-03-27T18:42:08.668Z,14.63
2023-03-27T18:44:39.058Z,16.13
2023-03-27T18:47:08.872Z,13.83
2023-03-27T18:49:36.984Z,14.20
2023-03-27T18:52:05.280Z,17.57
2023-03-27T18:54:33.219Z,14.60
2023-03-27T18:57:01.236Z,18.77
2023-03-27T18:59:30.676Z,21.77
2023-03-27T19:01:58.749Z,18.17
2023-03-27T19:04:26.786Z,17.87
2023-03-27T19:06:54.774Z,15.90
2023-03-27T19:09:28.220Z,13.00
2023-03-27T19:12:06.985Z,31.27
2023-03-27T19:14:36.925Z,30.50
2023-03-27T19:17:05.631Z,25.17
2023-03-27T19:19:33.715Z,19.80
2023-03-27T19:22:01.667Z,18.07
2023-03-27T19:24:29.800Z,18.93
2023-03-27T19:26:57.757Z,15.63
2023-03-27T19:29:25.804Z,14.47
2023-03-27T19:31:55.255Z,16.67
2023-03-27T19:34:32.736Z,25.90
2023-03-27T19:37:08.247Z,21.37
2023-03-27T19:39:36.203Z,22.07
2023-03-27T19:42:04.153Z,19.77
2023-03-27T19:44:32.301Z,18.30
2023-03-27T19:47:03.674Z,17.90
2023-03-27T19:49:32.018Z,19.67
2023-03-27T19:52:00.229Z,22.07
2023-03-27T19:54:30.026Z,19.03
2023-03-27T19:56:59.111Z,19.30
2023-03-27T19:59:30.807Z,18.23
2023-03-27T20:01:59.505Z,15.60
2023-03-27T20:04:28.932Z,23.47
2023-03-27T20:06:58.978Z,24.17
2023-03-27T20:09:27.099Z,26.97
2023-03-27T20:11:55.206Z,27.13
2023-03-27T20:14:23.195Z,26.53
2023-03-27T20:16:51.909Z,30.10
2023-03-27T20:19:22.072Z,31.63
2023-03-27T20:21:52.993Z,31.30
2023-03-27T20:24:21.045Z,31.63
2023-03-27T20:26:52.384Z,30.37
2023-03-27T20:29:23.750Z,32.87
2023-03-27T20:31:51.965Z,36.17
2023-03-27T20:34:22.538Z,35.33
2023-03-27T20:36:53.233Z,30.97
2023-03-27T20:39:21.766Z,36.27
2023-03-27T20:41:51.253Z,30.70
2023-03-27T20:44:19.271Z,30.80
2023-03-27T20:46:51.268Z,26.30
2023-03-27T20:51:57.738Z,27.83
2023-03-27T20:54:26.257Z,29.17
2023-03-27T20:56:54.259Z,18.83
2023-03-27T20:59:23.016Z,21.13
2023-03-27T21:01:50.997Z,27.07
2023-03-27T21:04:19.097Z,22.63
2023-03-27T21:06:47.071Z,17.70
2023-03-27T21:09:16.389Z,23.20
2023-03-27T21:11:44.360Z,18.70
2023-03-27T21:14:12.316Z,15.97
2023-03-27T21:16:40.379Z,20.30
2023-03-27T21:19:08.447Z,19.93
2023-03-27T21:21:36.395Z,19.07
2023-03-27T21:24:04.629Z,20.80
2023-03-27T21:26:34.336Z,20.27
2023-03-27T21:29:03.334Z,16.90
2023-03-27T21:31:31.380Z,17.67
2023-03-27T21:33:59.416Z,18.20
2023-03-27T21:36:29.505Z,16.67
2023-03-27T21:38:57.931Z,12.97
2023-03-27T21:41:26.775Z,15.80
2023-03-27T21:43:56.082Z,16.10
2023-03-27T21:46:24.087Z,18.80
2023-03-27T21:48:52.708Z,24.90
2023-03-27T21:51:21.035Z,20.20
2023-03-27T21:53:49.006Z,19.80
2023-03-27T21:56:16.949Z,14.80
2023-03-27T21:58:44.893Z,14.50
2023-03-27T22:01:15.144Z,16.37
2023-03-27T22:03:43.250Z,16.60
2023-03-27T22:06:13.455Z,14.73
2023-03-27T22:08:42.927Z,18.67
2023-03-27T22:11:12.517Z,14.70
2023-03-27T22:13:41.557Z,16.83
2023-03-27T22:16:10.815Z,17.87
2023-03-27T22:18:40.578Z,15.30
2023-03-27T22:21:16.422Z,15.63
2023-03-27T22:23:44.871Z,15.30
2023-03-27T22:26:13.550Z,16.20
2023-03-27T22:28:41.588Z,17.43
2023-03-27T22:31:10.049Z,25.53
2023-03-27T22:33:38.408Z,21.73
2023-03-27T22:36:11.750Z,24.73
2023-03-27T22:38:40.314Z,23.83
2023-03-27T22:41:11.364Z,25.23
2023-03-27T22:43:39.669Z,23.50
2023-03-27T22:46:09.346Z,27.77
2023-03-27T22:48:37.352Z,24.63
2023-03-27T22:51:07.377Z,28.70
2023-03-27T22:53:36.317Z,23.03
2023-03-27T22:56:05.011Z,27.00
2023-03-27T22:58:33.551Z,25.63
2023-03-27T23:01:01.594Z,28.63
2023-03-27T23:03:29.796Z,27.10
2023-03-27T23:05:58.067Z,26.80
2023-03-27T23:08:28.571Z,26.60
2023-03-27T23:10:57.968Z,25.93
2023-03-27T23:13:27.578Z,25.70
2023-03-27T23:15:55.972Z,24.03
2023-03-27T23:18:25.419Z,23.90
2023-03-27T23:20:56.975Z,22.73
2023-03-27T23:23:26.396Z,25.40
2023-03-27T23:25:57.623Z,19.43
2023-03-27T23:28:26.036Z,23.33
2023-03-27T23:30:55.085Z,23.70
2023-03-27T23:33:25.304Z,26.40
2023-03-27T23:35:54.338Z,25.73
2023-03-27T23:38:22.400Z,25.10
2023-03-27T23:40:57.653Z,22.60
2023-03-27T23:43:27.078Z,24.63
2023-03-27T23:45:56.159Z,21.13
2023-03-27T23:48:24.377Z,24.70
2023-03-27T23:50:53.095Z,27.90
2023-03-27T23:53:22.002Z,22.70
2023-03-27T23:55:50.337Z,22.50
2023-03-27T23:58:19.912Z,27.17
